Time;durP1;ratioP1;P1;durP2;ratioP2;P2;SDS_P1;SDS_P2;PMS_P1;PMS_P2;Temp;Humidity;BMP_temperature;BMP_pressure;BME280_temperature;BME280_humidity;BME280_pressure;Samples;Min_cycle;Max_cycle;Signal;HPM_P1;HPM_P2
2022/05/06 00:01:04;;;;;;;11.90;5.75;;;14.40;93.40;;;;;;10098192;28;20044;-71
2022/05/06 00:05:55;;;;;;;8.43;5.75;;;14.40;93.40;;;;;;10096598;28;20037;-72
2022/05/06 00:10:46;;;;;;;9.90;5.50;;;14.40;93.40;;;;;;10102653;28;20324;-72
2022/05/06 00:15:36;;;;;;;7.75;6.15;;;14.30;93.50;;;;;;10095148;28;20073;-72
2022/05/06 00:20:27;;;;;;;9.20;5.30;;;14.30;93.50;;;;;;10093903;28;20076;-70
2022/05/06 00:25:18;;;;;;;7.10;5.70;;;14.30;93.50;;;;;;10089891;28;20033;-68
2022/05/06 00:30:10;;;;;;;12.02;6.03;;;14.30;93.50;;;;;;10092035;28;20098;-70
2022/05/06 00:35:01;;;;;;;10.00;5.63;;;14.20;93.50;;;;;;10096490;28;20036;-69
2022/05/06 00:39:51;;;;;;;11.27;5.88;;;14.10;93.70;;;;;;10094415;28;20103;-71
2022/05/06 00:44:43;;;;;;;10.57;5.78;;;14.20;93.60;;;;;;10095791;28;20036;-72
2022/05/06 00:49:36;;;;;;;10.40;5.95;;;14.10;93.60;;;;;;10092665;28;20411;-73
2022/05/06 00:54:27;;;;;;;9.50;6.72;;;14.20;93.60;;;;;;10107967;28;20395;-72
2022/05/06 00:59:18;;;;;;;14.15;6.68;;;14.20;93.60;;;;;;10100576;28;20040;-72
2022/05/06 01:04:08;;;;;;;10.55;6.10;;;14.10;93.60;;;;;;10095404;28;20402;-67
2022/05/06 01:08:59;;;;;;;10.70;6.10;;;14.10;93.60;;;;;;10103647;28;20040;-70
2022/05/06 01:13:55;;;;;;;11.65;6.03;;;14.00;93.70;;;;;;10128408;28;20054;-69
2022/05/06 01:18:47;;;;;;;8.52;6.00;;;14.10;93.80;;;;;;10099834;28;20041;-69
2022/05/06 01:23:38;;;;;;;10.15;6.07;;;14.00;93.70;;;;;;10091264;28;20760;-69
2022/05/06 01:28:31;;;;;;;10.05;5.63;;;14.10;93.70;;;;;;10098503;28;20090;-68
2022/05/06 01:33:23;;;;;;;10.02;5.72;;;13.90;93.90;;;;;;10101867;28;20429;-69
2022/05/06 01:38:21;;;;;;;9.57;6.00;;;14.00;94.00;;;;;;10090785;28;20333;-70
2022/05/06 01:43:14;;;;;;;9.60;5.50;;;14.00;94.00;;;;;;10093402;28;20033;-69
2022/05/06 01:48:07;;;;;;;11.13;6.85;;;13.90;94.10;;;;;;10094280;28;20036;-68
2022/05/06 01:52:59;;;;;;;9.13;5.82;;;13.70;94.10;;;;;;10102412;28;20029;-69
2022/05/06 01:57:50;;;;;;;8.55;5.65;;;13.70;94.30;;;;;;10100495;28;20032;-69
2022/05/06 02:02:41;;;;;;;6.90;4.70;;;13.80;94.10;;;;;;10094145;28;20025;-69
2022/05/06 02:07:31;;;;;;;8.93;6.38;;;13.90;94.20;;;;;;10089358;28;20024;-69
2022/05/06 02:12:22;;;;;;;8.75;5.70;;;13.90;94.10;;;;;;10100072;28;20053;-68
2022/05/06 02:17:13;;;;;;;13.82;6.90;;;13.80;94.20;;;;;;10078414;28;20043;-69
2022/05/06 02:22:03;;;;;;;9.35;5.82;;;13.80;94.30;;;;;;10083039;28;20103;-69
2022/05/06 02:26:54;;;;;;;8.95;5.65;;;13.90;94.30;;;;;;10082663;28;20024;-70
2022/05/06 02:36:54;;;;;;;8.18;5.22;;;14.00;94.40;;;;;;10089317;28;20274;-69
2022/05/06 02:41:44;;;;;;;8.20;5.07;;;13.90;94.50;;;;;;10090912;28;20047;-67
2022/05/06 02:46:35;;;;;;;8.35;4.82;;;13.90;94.50;;;;;;10088091;28;20391;-69
2022/05/06 02:51:28;;;;;;;8.68;4.78;;;14.00;94.60;;;;;;10103771;28;20058;-67
2022/05/06 02:56:20;;;;;;;6.85;4.68;;;14.00;94.60;;;;;;10087267;28;20021;-71
2022/05/06 03:01:11;;;;;;;9.68;5.75;;;13.90;94.80;;;;;;10086198;28;20037;-66
2022/05/06 03:06:02;;;;;;;6.63;5.18;;;13.90;94.80;;;;;;10085812;28;20098;-68
2022/05/06 03:10:52;;;;;;;9.93;5.20;;;13.90;94.80;;;;;;10102168;28;20534;-68
2022/05/06 03:15:45;;;;;;;9.90;6.28;;;13.90;94.80;;;;;;10087789;28;20052;-68
2022/05/06 03:20:37;;;;;;;11.05;5.72;;;13.90;94.80;;;;;;10094980;28;20041;-72
2022/05/06 03:25:27;;;;;;;9.40;5.25;;;13.90;94.90;;;;;;10094515;28;20029;-67
2022/05/06 03:30:19;;;;;;;9.48;6.38;;;14.00;94.80;;;;;;10101688;28;20045;-67
2022/05/06 03:35:09;;;;;;;6.78;5.18;;;13.90;94.80;;;;;;10098889;28;20372;-68
2022/05/06 03:40:00;;;;;;;11.32;6.85;;;13.90;95.00;;;;;;10090292;28;20040;-68
2022/05/06 03:44:51;;;;;;;9.95;6.63;;;13.80;94.90;;;;;;10092316;28;20028;-67
2022/05/06 03:49:41;;;;;;;9.23;6.28;;;13.70;95.00;;;;;;10093922;28;20044;-69
2022/05/06 03:54:33;;;;;;;8.65;6.35;;;13.80;95.10;;;;;;10091401;28;20032;-67
2022/05/06 03:59:24;;;;;;;8.50;6.40;;;13.90;95.10;;;;;;10096666;28;20039;-69
2022/05/06 04:04:14;;;;;;;11.07;5.88;;;13.90;95.10;;;;;;10090161;28;20033;-71
2022/05/06 04:09:05;;;;;;;8.45;6.13;;;13.80;95.20;;;;;;10095302;28;20044;-71
2022/05/06 04:13:56;;;;;;;12.68;6.28;;;13.80;95.10;;;;;;10101823;28;20041;-71
2022/05/06 04:18:46;;;;;;;10.73;6.97;;;13.80;95.20;;;;;;10097288;28;20036;-67
2022/05/06 04:23:38;;;;;;;9.07;5.63;;;13.80;95.30;;;;;;10106003;28;20025;-76
2022/05/06 04:28:29;;;;;;;10.48;6.30;;;13.90;95.30;;;;;;10099545;28;20036;-72
2022/05/06 04:33:21;;;;;;;11.07;5.95;;;13.90;95.30;;;;;;10103491;28;20031;-73
2022/05/06 04:38:14;;;;;;;10.15;6.15;;;13.90;95.30;;;;;;10101459;28;20048;-71
2022/05/06 04:43:05;;;;;;;10.77;6.35;;;13.90;95.50;;;;;;10102471;28;20032;-70
2022/05/06 04:47:56;;;;;;;10.10;5.88;;;13.90;95.60;;;;;;10099851;28;20036;-69
2022/05/06 04:52:47;;;;;;;14.40;6.70;;;13.80;95.60;;;;;;10111228;28;20072;-71
2022/05/06 04:57:37;;;;;;;11.95;6.80;;;13.80;95.60;;;;;;10098129;28;20028;-71
2022/05/06 05:02:28;;;;;;;10.25;5.70;;;13.80;95.60;;;;;;10101901;28;20025;-72
2022/05/06 05:07:19;;;;;;;10.95;6.40;;;13.80;95.60;;;;;;10099485;28;20548;-72
2022/05/06 05:12:10;;;;;;;10.82;6.95;;;13.80;95.70;;;;;;10107204;28;20053;-73
2022/05/06 05:17:01;;;;;;;8.88;5.38;;;13.90;95.70;;;;;;10103558;28;20415;-72
2022/05/06 05:21:51;;;;;;;11.15;6.15;;;13.80;95.80;;;;;;10088653;28;20127;-70
2022/05/06 05:26:43;;;;;;;10.38;6.93;;;13.90;95.80;;;;;;10104112;28;20025;-78
2022/05/06 05:31:34;;;;;;;10.55;6.03;;;13.80;95.80;;;;;;10110997;28;20064;-78
2022/05/06 05:36:24;;;;;;;12.15;5.95;;;13.80;95.80;;;;;;10101523;28;20091;-72
2022/05/06 05:41:15;;;;;;;10.32;5.43;;;13.90;95.80;;;;;;10096026;28;20092;-71
2022/05/06 05:51:15;;;;;;;9.32;7.15;;;13.80;95.90;;;;;;10095594;28;20043;-77
2022/05/06 05:56:06;;;;;;;8.70;5.72;;;13.80;95.90;;;;;;10096734;28;20097;-77
2022/05/06 06:00:56;;;;;;;10.00;6.13;;;13.90;95.90;;;;;;10099744;28;20422;-75
2022/05/06 06:05:47;;;;;;;8.35;5.32;;;14.00;95.80;;;;;;10095493;28;20037;-71
2022/05/06 06:10:38;;;;;;;9.80;5.43;;;14.00;95.80;;;;;;10101322;28;20037;-71
2022/05/06 06:15:30;;;;;;;10.85;5.65;;;14.00;95.80;;;;;;10093032;28;20079;-73
2022/05/06 06:20:21;;;;;;;6.47;4.35;;;14.10;95.80;;;;;;10093907;28;20557;-69
2022/05/06 06:25:13;;;;;;;8.82;5.32;;;14.10;95.80;;;;;;10095644;28;20032;-69
2022/05/06 06:30:04;;;;;;;11.65;6.75;;;14.20;95.80;;;;;;10094908;28;20217;-73
2022/05/06 06:34:55;;;;;;;9.30;5.68;;;14.30;95.70;;;;;;10094029;28;20498;-71
2022/05/06 06:39:46;;;;;;;9.68;5.38;;;14.20;95.60;;;;;;10094942;28;20041;-66
2022/05/06 06:44:36;;;;;;;8.63;5.50;;;14.30;95.70;;;;;;10106555;28;20025;-66
2022/05/06 06:49:27;;;;;;;9.70;5.72;;;14.20;95.50;;;;;;10092469;28;20029;-66
2022/05/06 06:54:18;;;;;;;9.75;5.25;;;14.30;95.30;;;;;;10092785;28;20070;-67
2022/05/06 06:59:08;;;;;;;6.22;4.82;;;14.40;95.20;;;;;;10096291;28;20056;-67
2022/05/06 07:04:00;;;;;;;8.25;5.70;;;14.50;95.00;;;;;;10097007;28;20395;-70
2022/05/06 07:14:00;;;;;;;11.77;5.28;;;14.60;94.70;;;;;;10099186;28;20052;-69
2022/05/06 07:18:51;;;;;;;10.82;4.85;;;14.70;94.40;;;;;;10097944;28;20418;-70
2022/05/06 07:23:41;;;;;;;8.02;4.45;;;14.80;94.30;;;;;;10090972;28;20473;-71
2022/05/06 07:28:33;;;;;;;6.10;3.97;;;15.00;94.00;;;;;;10093764;28;20059;-69
2022/05/06 07:33:23;;;;;;;8.07;5.80;;;15.00;93.80;;;;;;10094285;28;20553;-70
2022/05/06 07:38:14;;;;;;;8.27;4.13;;;15.10;93.70;;;;;;10101494;28;20174;-71
2022/05/06 07:43:05;;;;;;;9.90;4.28;;;15.10;93.50;;;;;;10097716;28;20025;-72
2022/05/06 07:47:55;;;;;;;6.00;3.60;;;15.20;93.30;;;;;;10100706;28;20502;-70
2022/05/06 07:52:46;;;;;;;5.82;3.60;;;15.30;92.90;;;;;;10109092;28;20361;-70
2022/05/06 07:57:37;;;;;;;6.57;3.22;;;15.40;92.70;;;;;;10102291;28;20041;-70
2022/05/06 08:07:37;;;;;;;7.05;3.80;;;15.50;92.30;;;;;;10104943;28;20085;-70
2022/05/06 08:12:28;;;;;;;5.45;3.22;;;15.40;92.40;;;;;;10111495;28;20117;-70
2022/05/06 08:17:18;;;;;;;6.20;3.17;;;15.50;92.30;;;;;;10096828;28;20049;-69
2022/05/06 08:22:12;;;;;;;4.10;3.33;;;15.60;92.10;;;;;;10124109;28;20036;-70
2022/05/06 08:27:03;;;;;;;5.88;3.47;;;15.70;92.00;;;;;;10115213;28;20410;-68
2022/05/06 08:31:54;;;;;;;7.20;3.45;;;15.70;92.00;;;;;;10104324;28;20057;-70
2022/05/06 08:36:45;;;;;;;6.13;4.03;;;15.70;91.90;;;;;;10105936;28;20029;-68
2022/05/06 08:41:36;;;;;;;7.13;3.42;;;15.70;91.70;;;;;;10096138;28;20117;-70
2022/05/06 08:51:39;;;;;;;8.70;4.72;;;15.70;91.70;;;;;;10097066;28;20048;-73
2022/05/06 08:56:36;;;;;;;8.70;3.95;;;15.80;91.70;;;;;;10097487;28;20028;-70
2022/05/06 09:01:36;;;;;;;6.60;3.38;;;15.90;91.60;;;;;;10100643;28;20033;-72
2022/05/06 09:06:29;;;;;;;4.85;3.55;;;15.90;91.10;;;;;;10095587;28;20029;-70
2022/05/06 09:16:39;;;;;;;6.18;3.78;;;15.80;91.40;;;;;;10095526;28;20167;-70
2022/05/06 09:21:30;;;;;;;7.32;3.75;;;16.10;91.30;;;;;;10103597;28;20056;-71
2022/05/06 09:26:21;;;;;;;5.55;3.10;;;16.20;91.10;;;;;;10105369;28;20542;-68
2022/05/06 09:31:12;;;;;;;4.60;3.50;;;16.10;91.00;;;;;;10094761;28;20486;-69
2022/05/06 09:36:25;;;;;;;5.05;3.13;;;16.30;90.90;;;;;;10099524;28;20017;-71
2022/05/06 09:41:20;;;;;;;4.72;3.28;;;16.90;90.20;;;;;;10099032;28;20025;-70
2022/05/06 09:46:20;;;;;;;9.30;3.97;;;16.90;90.20;;;;;;10099853;28;20051;-70
2022/05/06 09:51:25;;;;;;;7.43;3.95;;;16.70;88.20;;;;;;10097591;28;20041;-69
2022/05/06 09:56:16;;;;;;;6.18;4.10;;;16.90;88.40;;;;;;10096168;28;20063;-72
2022/05/06 10:01:07;;;;;;;5.00;3.08;;;17.00;89.20;;;;;;10095295;28;20031;-68
2022/05/06 10:06:02;;;;;;;5.57;3.20;;;17.00;89.10;;;;;;10100806;28;20470;-69
2022/05/06 10:10:59;;;;;;;7.90;3.38;;;17.00;88.30;;;;;;10092072;28;20040;-68
2022/05/06 10:15:52;;;;;;;4.80;3.83;;;17.20;88.00;;;;;;10097870;28;20041;-68
2022/05/06 10:20:45;;;;;;;4.75;3.10;;;17.30;87.50;;;;;;10099165;28;20024;-69
2022/05/06 10:25:45;;;;;;;5.97;3.60;;;17.40;87.10;;;;;;10092016;28;20039;-71
2022/05/06 10:35:47;;;;;;;4.97;3.63;;;17.90;85.80;;;;;;10093921;28;20104;-69
2022/05/06 10:40:52;;;;;;;7.55;3.72;;;18.00;85.20;;;;;;10102044;28;20027;-69
2022/05/06 10:45:46;;;;;;;4.93;3.25;;;18.10;84.10;;;;;;10092429;28;20028;-71
2022/05/06 10:50:38;;;;;;;6.05;3.63;;;18.20;84.70;;;;;;10092086;28;20063;-70
2022/05/06 10:55:29;;;;;;;5.53;3.85;;;18.00;84.30;;;;;;10096316;28;20391;-68
2022/05/06 11:00:21;;;;;;;8.05;4.32;;;18.10;83.60;;;;;;10092704;28;20131;-69
2022/05/06 11:05:14;;;;;;;5.15;3.38;;;18.10;83.10;;;;;;10091024;28;20033;-70
2022/05/06 11:10:18;;;;;;;5.03;3.17;;;18.00;82.70;;;;;;10096390;28;20041;-69
2022/05/06 11:15:13;;;;;;;7.28;2.40;;;18.20;81.80;;;;;;10094989;28;20048;-69
2022/05/06 11:20:26;;;;;;;5.15;3.40;;;18.50;81.20;;;;;;10090942;28;20029;-70
2022/05/06 11:25:20;;;;;;;4.97;2.38;;;18.70;81.10;;;;;;10101775;28;20316;-70
2022/05/06 11:30:17;;;;;;;4.33;2.07;;;18.90;80.40;;;;;;10099029;28;20100;-68
2022/05/06 11:35:14;;;;;;;3.70;2.25;;;18.90;79.70;;;;;;10100867;28;20388;-68
2022/05/06 11:50:26;;;;;;;3.30;1.90;;;18.90;76.70;;;;;;10100621;28;20067;-69
2022/05/06 11:55:16;;;;;;;3.38;1.52;;;19.00;76.60;;;;;;10102720;28;20186;-70
2022/05/06 12:00:08;;;;;;;4.80;1.95;;;19.30;75.50;;;;;;10101474;28;20028;-68
2022/05/06 12:04:59;;;;;;;3.53;1.83;;;19.50;74.60;;;;;;10099716;28;20033;-70
2022/05/06 12:09:54;;;;;;;2.50;2.03;;;19.60;74.00;;;;;;10103556;28;20028;-71
2022/05/06 12:14:45;;;;;;;3.75;1.65;;;19.60;72.50;;;;;;10102032;28;20474;-70
2022/05/06 12:19:42;;;;;;;3.42;1.70;;;19.70;72.10;;;;;;10103363;28;20094;-68
2022/05/06 12:24:44;;;;;;;2.55;1.70;;;20.20;71.80;;;;;;10097898;28;20116;-68
2022/05/06 12:29:41;;;;;;;3.15;1.70;;;20.70;68.60;;;;;;10101777;28;20503;-68
2022/05/06 12:34:33;;;;;;;3.35;1.40;;;20.90;70.70;;;;;;10103605;28;20245;-69
2022/05/06 12:39:23;;;;;;;4.78;2.10;;;21.10;70.20;;;;;;10108972;28;20499;-69
2022/05/06 12:44:22;;;;;;;3.22;1.52;;;21.10;68.70;;;;;;10104656;28;20045;-71
2022/05/06 12:54:26;;;;;;;3.60;1.70;;;21.90;68.60;;;;;;10112266;28;20522;-70
2022/05/06 12:59:17;;;;;;;8.27;1.93;;;23.00;68.70;;;;;;10098297;28;20036;-72
2022/05/06 13:04:07;;;;;;;4.75;2.40;;;23.90;67.00;;;;;;10101398;28;20036;-69
2022/05/06 13:08:59;;;;;;;3.38;2.10;;;25.10;64.40;;;;;;10105761;28;20037;-69
2022/05/06 13:13:50;;;;;;;2.60;2.30;;;24.90;62.30;;;;;;10114711;28;20129;-70
2022/05/06 13:18:41;;;;;;;2.85;1.90;;;25.00;61.00;;;;;;10102567;28;21027;-70
2022/05/06 13:23:32;;;;;;;3.92;1.98;;;25.00;60.30;;;;;;10112723;28;20025;-70
2022/05/06 13:28:22;;;;;;;7.07;2.10;;;27.00;58.70;;;;;;10105807;28;20032;-70
2022/05/06 13:33:13;;;;;;;3.03;1.42;;;27.90;57.00;;;;;;10112109;28;20033;-69
2022/05/06 13:38:04;;;;;;;2.78;2.08;;;29.00;55.10;;;;;;10094313;28;20051;-70
2022/05/06 13:42:55;;;;;;;3.42;1.98;;;27.50;54.00;;;;;;10095014;28;20028;-70
2022/05/06 13:47:46;;;;;;;2.20;1.83;;;25.80;54.40;;;;;;10096380;28;20112;-71
2022/05/06 13:52:37;;;;;;;4.03;2.10;;;25.50;54.10;;;;;;10094189;28;20112;-69
2022/05/06 14:02:37;;;;;;;2.50;1.45;;;29.60;50.70;;;;;;10095827;28;20090;-71
2022/05/06 14:07:28;;;;;;;3.72;1.58;;;30.50;49.10;;;;;;10094621;28;20130;-70
2022/05/06 14:12:18;;;;;;;2.08;1.30;;;29.50;48.30;;;;;;10109490;28;20353;-70
2022/05/06 14:17:09;;;;;;;1.92;1.70;;;27.60;49.00;;;;;;10093576;28;20028;-68
2022/05/06 14:22:00;;;;;;;2.33;1.92;;;26.40;49.00;;;;;;10090145;28;20040;-70
2022/05/06 14:26:51;;;;;;;2.60;1.15;;;26.90;48.40;;;;;;10093214;28;20025;-70
2022/05/06 14:31:41;;;;;;;2.38;1.13;;;28.40;46.70;;;;;;10092861;28;20041;-69
2022/05/06 14:36:32;;;;;;;2.28;1.63;;;29.40;45.60;;;;;;10088351;28;20024;-71
2022/05/06 14:41:23;;;;;;;1.65;1.40;;;29.20;44.90;;;;;;10098834;28;20033;-70
2022/05/06 14:46:14;;;;;;;3.38;1.58;;;28.10;45.00;;;;;;10100039;28;20025;-70
2022/05/06 14:51:04;;;;;;;3.08;1.50;;;27.20;45.30;;;;;;10090125;28;20037;-70
2022/05/06 14:55:56;;;;;;;2.05;1.50;;;27.10;45.00;;;;;;10095711;28;20452;-70
2022/05/06 15:00:46;;;;;;;2.28;1.30;;;28.80;43.90;;;;;;10098512;28;20057;-71
2022/05/06 15:05:37;;;;;;;1.80;1.20;;;30.40;42.70;;;;;;10093925;28;20448;-70
2022/05/06 15:10:28;;;;;;;2.25;1.23;;;31.20;42.20;;;;;;10102104;28;20380;-70
2022/05/06 15:15:19;;;;;;;2.70;1.57;;;30.80;42.20;;;;;;10099010;28;20546;-70
2022/05/06 15:20:10;;;;;;;2.58;1.60;;;30.00;41.70;;;;;;10087030;28;20036;-69
2022/05/06 15:25:05;;;;;;;2.87;1.63;;;29.40;41.50;;;;;;10086764;28;20075;-69
2022/05/06 15:29:56;;;;;;;2.10;1.42;;;29.70;41.40;;;;;;10094046;28;20499;-70
2022/05/06 15:34:47;;;;;;;2.15;1.45;;;30.10;40.40;;;;;;10091079;28;20162;-70
2022/05/06 15:39:38;;;;;;;2.03;1.80;;;29.90;40.20;;;;;;10093916;28;20029;-69
2022/05/06 15:44:29;;;;;;;2.55;1.33;;;30.30;40.00;;;;;;10092584;28;20039;-68
2022/05/06 15:49:20;;;;;;;2.08;1.50;;;30.80;39.30;;;;;;10085027;28;20554;-72
2022/05/06 15:54:11;;;;;;;1.37;1.17;;;30.80;38.90;;;;;;10091703;28;20040;-70
2022/05/06 15:59:02;;;;;;;2.95;1.48;;;31.40;38.00;;;;;;10092110;28;20295;-67
2022/05/06 16:03:53;;;;;;;1.90;1.35;;;31.30;37.60;;;;;;10090789;28;20160;-70
2022/05/06 16:08:43;;;;;;;3.67;1.90;;;32.60;36.90;;;;;;10091014;28;20055;-70
2022/05/06 16:13:34;;;;;;;2.67;1.30;;;33.00;36.30;;;;;;10109684;28;20045;-71
2022/05/06 16:18:25;;;;;;;1.48;1.30;;;33.20;36.00;;;;;;10096307;28;20028;-70
2022/05/06 16:23:15;;;;;;;2.07;1.27;;;33.40;35.40;;;;;;10096294;28;20044;-71
2022/05/06 16:28:07;;;;;;;1.50;1.00;;;33.80;35.00;;;;;;10099892;28;20024;-70
2022/05/06 16:32:58;;;;;;;2.25;1.27;;;34.30;34.40;;;;;;10095682;28;20037;-70
2022/05/06 16:37:49;;;;;;;2.57;1.13;;;34.20;34.10;;;;;;10102355;28;20052;-69
2022/05/06 16:42:40;;;;;;;3.57;1.57;;;34.50;33.70;;;;;;10098022;28;20025;-69
2022/05/06 16:47:30;;;;;;;3.10;1.63;;;34.80;33.40;;;;;;10097718;28;20467;-67
2022/05/06 16:52:21;;;;;;;2.30;1.20;;;34.90;33.20;;;;;;10099663;28;20143;-69
2022/05/06 16:57:12;;;;;;;2.35;1.58;;;34.30;33.30;;;;;;10101542;28;20047;-70
2022/05/06 17:02:03;;;;;;;4.00;1.73;;;34.20;33.20;;;;;;10088184;28;20269;-64
2022/05/06 17:06:53;;;;;;;3.33;1.55;;;33.80;33.30;;;;;;10095000;28;20321;-63
2022/05/06 17:11:44;;;;;;;3.25;1.40;;;34.10;32.60;;;;;;10100587;28;20033;-64
2022/05/06 17:16:35;;;;;;;3.45;1.70;;;32.70;33.50;;;;;;10097848;28;20116;-64
2022/05/06 17:21:29;;;;;;;1.73;1.38;;;32.00;34.00;;;;;;10091170;28;20104;-65
2022/05/06 17:26:20;;;;;;;3.05;1.30;;;31.30;34.20;;;;;;10096055;28;20028;-64
2022/05/06 17:31:15;;;;;;;3.33;1.48;;;30.40;34.60;;;;;;10097537;28;20425;-64
2022/05/06 17:36:06;;;;;;;2.83;1.60;;;27.30;36.90;;;;;;10092508;28;20293;-63
2022/05/06 17:40:57;;;;;;;2.42;1.70;;;25.40;38.10;;;;;;10098685;28;20506;-63
2022/05/06 17:45:48;;;;;;;2.42;1.25;;;24.50;38.50;;;;;;10100872;28;20068;-64
2022/05/06 17:50:38;;;;;;;2.35;1.63;;;23.90;39.00;;;;;;10103215;28;20045;-65
2022/05/06 17:55:31;;;;;;;1.90;1.42;;;23.50;39.40;;;;;;10104719;28;20025;-64
2022/05/06 18:05:31;;;;;;;4.20;2.28;;;23.40;39.10;;;;;;10099224;28;20094;-64
2022/05/06 18:10:21;;;;;;;3.85;1.42;;;23.30;39.30;;;;;;10094590;28;20047;-62
2022/05/06 18:15:13;;;;;;;4.45;2.25;;;23.00;39.80;;;;;;10094725;28;20080;-63
2022/05/06 18:20:05;;;;;;;3.17;1.98;;;22.90;40.10;;;;;;10098272;28;20032;-64
2022/05/06 18:24:56;;;;;;;11.02;2.55;;;22.80;40.40;;;;;;10090076;28;20462;-65
2022/05/06 18:29:48;;;;;;;6.25;2.65;;;22.60;40.60;;;;;;10098728;28;20529;-62
2022/05/06 18:34:38;;;;;;;2.67;1.70;;;22.50;40.90;;;;;;10103787;28;20053;-63
2022/05/06 18:39:29;;;;;;;9.35;3.30;;;22.20;41.40;;;;;;10105629;28;20036;-63
2022/05/06 18:44:20;;;;;;;10.52;4.32;;;22.20;41.60;;;;;;10091627;28;20462;-63
2022/05/06 18:49:10;;;;;;;5.43;2.10;;;22.10;41.90;;;;;;10101615;28;20068;-64
2022/05/06 18:54:01;;;;;;;9.00;3.38;;;21.90;42.20;;;;;;10096918;28;20415;-63
2022/05/06 18:58:51;;;;;;;7.70;2.47;;;21.80;42.40;;;;;;10111554;28;20036;-64
2022/05/06 19:03:42;;;;;;;6.10;2.58;;;21.60;42.70;;;;;;10092308;28;20037;-63
2022/05/06 19:08:34;;;;;;;6.60;2.67;;;21.40;43.00;;;;;;10091710;28;20062;-62
2022/05/06 19:13:24;;;;;;;7.90;2.80;;;21.40;43.30;;;;;;10103173;28;20127;-62
2022/05/06 19:18:21;;;;;;;12.50;3.95;;;21.30;43.60;;;;;;10091130;28;20036;-64
2022/05/06 19:28:45;;;;;;;7.85;3.38;;;21.20;44.10;;;;;;10087680;28;20118;-62
2022/05/06 19:33:37;;;;;;;7.63;4.15;;;21.00;44.30;;;;;;10091055;28;20067;-64
2022/05/06 19:38:27;;;;;;;8.85;3.28;;;21.00;44.70;;;;;;10115622;28;20029;-64
2022/05/06 19:43:35;;;;;;;7.03;3.72;;;20.90;45.00;;;;;;10114437;28;20055;-64
2022/05/06 19:48:25;;;;;;;6.18;3.20;;;20.80;45.40;;;;;;10102664;28;20033;-61
2022/05/06 19:53:16;;;;;;;9.80;3.97;;;20.80;45.60;;;;;;10103077;28;20051;-64
2022/05/06 19:58:07;;;;;;;8.88;4.63;;;20.70;45.80;;;;;;10110450;28;20083;-63
2022/05/06 20:02:58;;;;;;;7.35;3.53;;;20.60;46.10;;;;;;10099932;28;20025;-64
2022/05/06 20:07:49;;;;;;;7.28;4.03;;;20.60;46.40;;;;;;10107950;28;20036;-64
2022/05/06 20:12:39;;;;;;;4.85;3.22;;;20.50;46.50;;;;;;10114282;28;20041;-63
2022/05/06 20:17:30;;;;;;;6.85;2.70;;;20.40;47.00;;;;;;10098559;28;20033;-64
2022/05/06 20:22:21;;;;;;;3.90;3.50;;;20.20;47.30;;;;;;10093797;28;20029;-63
2022/05/06 20:27:12;;;;;;;5.00;2.50;;;20.20;47.50;;;;;;10097440;28;20587;-65
2022/05/06 20:32:04;;;;;;;4.47;2.30;;;20.20;47.70;;;;;;10101121;28;20418;-67
2022/05/06 20:36:55;;;;;;;4.57;2.67;;;20.20;47.90;;;;;;10107694;28;20560;-65
2022/05/06 20:41:45;;;;;;;3.17;2.10;;;20.00;48.10;;;;;;10103281;28;20175;-63
2022/05/06 20:46:38;;;;;;;5.93;2.22;;;19.90;48.50;;;;;;10106232;28;20099;-64
2022/05/06 20:51:30;;;;;;;7.93;3.17;;;19.90;48.60;;;;;;10107546;28;20108;-64
2022/05/06 20:56:20;;;;;;;7.32;4.30;;;19.60;48.90;;;;;;10102236;28;20036;-65
2022/05/06 21:01:11;;;;;;;6.43;3.05;;;19.80;49.30;;;;;;10096164;28;20029;-67
2022/05/06 21:06:02;;;;;;;17.23;4.25;;;19.80;49.40;;;;;;10105427;28;20023;-64
2022/05/06 21:16:03;;;;;;;7.40;3.88;;;19.80;49.80;;;;;;10101666;28;20051;-64
2022/05/06 21:20:53;;;;;;;7.57;3.42;;;19.70;50.00;;;;;;10102424;28;20398;-62
2022/05/06 21:25:44;;;;;;;5.85;3.00;;;19.60;50.20;;;;;;10100504;28;20032;-65
2022/05/06 21:30:35;;;;;;;4.82;2.13;;;19.50;50.60;;;;;;10095019;28;20126;-64
2022/05/06 21:35:26;;;;;;;20.70;4.55;;;19.40;50.90;;;;;;10099268;28;20116;-65
2022/05/06 21:40:17;;;;;;;5.00;3.25;;;19.40;51.10;;;;;;10094040;28;20128;-64
2022/05/06 21:45:09;;;;;;;6.72;3.67;;;19.30;51.30;;;;;;10093923;28;20446;-62
2022/05/06 21:50:00;;;;;;;6.93;4.72;;;19.10;51.60;;;;;;10094618;28;20056;-62
2022/05/06 21:54:51;;;;;;;4.47;2.80;;;19.00;52.00;;;;;;10092405;28;20024;-66
2022/05/06 21:59:42;;;;;;;7.15;3.20;;;18.90;52.70;;;;;;10093896;28;20555;-64
2022/05/06 22:04:33;;;;;;;5.90;2.78;;;18.70;52.80;;;;;;10094748;28;20044;-67
2022/05/06 22:09:24;;;;;;;8.68;4.18;;;18.70;52.70;;;;;;10095800;28;20064;-64
2022/05/06 22:14:14;;;;;;;7.18;3.33;;;18.70;53.00;;;;;;10096304;28;20064;-65
2022/05/06 22:19:05;;;;;;;7.82;3.97;;;18.60;53.20;;;;;;10092996;28;20087;-64
2022/05/06 22:23:56;;;;;;;8.68;4.00;;;18.50;53.60;;;;;;10092728;28;20376;-64
2022/05/06 22:28:47;;;;;;;7.05;3.30;;;18.40;54.10;;;;;;10096061;28;20028;-63
2022/05/06 22:38:47;;;;;;;8.05;3.47;;;18.30;54.70;;;;;;10097806;28;20079;-66
2022/05/06 22:48:46;;;;;;;4.72;3.35;;;18.20;55.00;;;;;;10094253;28;20028;-65
2022/05/06 22:53:37;;;;;;;5.05;2.75;;;18.10;55.50;;;;;;10094828;28;20040;-64
2022/05/06 22:58:28;;;;;;;8.35;3.00;;;18.10;55.70;;;;;;10093174;28;20029;-66
2022/05/06 23:03:19;;;;;;;7.63;4.40;;;18.00;55.70;;;;;;10112991;28;20271;-65
2022/05/06 23:08:11;;;;;;;6.50;3.88;;;17.80;56.20;;;;;;10113594;28;20267;-64
2022/05/06 23:13:02;;;;;;;6.35;3.80;;;17.70;56.80;;;;;;10094022;28;20048;-64
2022/05/06 23:17:52;;;;;;;8.55;3.78;;;17.60;57.20;;;;;;10101658;28;20025;-66
2022/05/06 23:22:44;;;;;;;8.45;3.15;;;17.60;57.40;;;;;;10107154;28;20028;-64
2022/05/06 23:27:34;;;;;;;9.73;3.65;;;17.80;57.50;;;;;;10098048;28;20020;-66
2022/05/06 23:32:25;;;;;;;7.97;3.75;;;17.70;57.80;;;;;;10109689;28;20482;-64
2022/05/06 23:37:28;;;;;;;7.07;3.90;;;17.50;58.30;;;;;;10093678;28;20632;-65
2022/05/06 23:42:19;;;;;;;4.80;3.45;;;17.50;58.50;;;;;;10096307;28;20395;-66
2022/05/06 23:47:09;;;;;;;6.47;3.20;;;17.40;58.80;;;;;;10100206;28;20021;-65
2022/05/06 23:52:00;;;;;;;5.28;3.22;;;17.20;59.20;;;;;;10105677;28;20123;-67
2022/05/06 23:56:51;;;;;;;4.93;3.15;;;17.30;59.30;;;;;;10099199;28;20041;-65
